sensor_id;sensor_type;location;lat;lon;timestamp;temperature;humidity
24618;DHT22;12762;51.730;5.356;2024-03-25T00:00:28;6.70;85.20
24618;DHT22;12762;51.730;5.356;2024-03-25T00:02:55;6.60;85.10
24618;DHT22;12762;51.730;5.356;2024-03-25T00:05:20;6.60;85.30
24618;DHT22;12762;51.730;5.356;2024-03-25T00:07:52;6.60;85.40
24618;DHT22;12762;51.730;5.356;2024-03-25T00:10:18;6.50;85.30
24618;DHT22;12762;51.730;5.356;2024-03-25T00:12:46;6.50;85.30
24618;DHT22;12762;51.730;5.356;2024-03-25T00:15:13;6.50;85.30
24618;DHT22;12762;51.730;5.356;2024-03-25T00:17:39;6.40;85.20
24618;DHT22;12762;51.730;5.356;2024-03-25T00:20:05;6.40;85.20
24618;DHT22;12762;51.730;5.356;2024-03-25T00:22:34;6.40;85.30
24618;DHT22;12762;51.730;5.356;2024-03-25T00:25:00;6.30;85.20
24618;DHT22;12762;51.730;5.356;2024-03-25T00:27:26;6.30;85.30
24618;DHT22;12762;51.730;5.356;2024-03-25T00:29:52;6.20;85.20
24618;DHT22;12762;51.730;5.356;2024-03-25T00:32:18;6.30;85.30
24618;DHT22;12762;51.730;5.356;2024-03-25T00:34:43;6.20;85.30
24618;DHT22;12762;51.730;5.356;2024-03-25T00:37:09;6.10;85.20
24618;DHT22;12762;51.730;5.356;2024-03-25T00:39:35;6.10;85.30
24618;DHT22;12762;51.730;5.356;2024-03-25T00:42:01;6.10;85.30
24618;DHT22;12762;51.730;5.356;2024-03-25T00:44:27;6.10;85.30
24618;DHT22;12762;51.730;5.356;2024-03-25T00:46:52;6.00;85.30
24618;DHT22;12762;51.730;5.356;2024-03-25T00:49:18;6.00;85.40
24618;DHT22;12762;51.730;5.356;2024-03-25T00:51:44;6.00;85.40
24618;DHT22;12762;51.730;5.356;2024-03-25T00:54:10;5.90;85.40
24618;DHT22;12762;51.730;5.356;2024-03-25T00:56:36;5.90;85.30
24618;DHT22;12762;51.730;5.356;2024-03-25T00:59:05;5.90;85.40
24618;DHT22;12762;51.730;5.356;2024-03-25T01:01:35;5.80;85.30
24618;DHT22;12762;51.730;5.356;2024-03-25T01:04:04;5.80;85.30
24618;DHT22;12762;51.730;5.356;2024-03-25T01:06:30;5.70;86.10
24618;DHT22;12762;51.730;5.356;2024-03-25T01:08:56;5.70;85.30
24618;DHT22;12762;51.730;5.356;2024-03-25T01:11:21;5.60;85.30
24618;DHT22;12762;51.730;5.356;2024-03-25T01:13:48;5.60;85.50
24618;DHT22;12762;51.730;5.356;2024-03-25T01:16:14;5.50;86.30
24618;DHT22;12762;51.730;5.356;2024-03-25T01:18:40;5.50;85.50
24618;DHT22;12762;51.730;5.356;2024-03-25T01:21:08;5.40;85.40
24618;DHT22;12762;51.730;5.356;2024-03-25T01:23:35;5.40;85.50
24618;DHT22;12762;51.730;5.356;2024-03-25T01:26:00;5.40;85.60
24618;DHT22;12762;51.730;5.356;2024-03-25T01:28:26;5.30;85.50
24618;DHT22;12762;51.730;5.356;2024-03-25T01:30:52;5.30;85.60
24618;DHT22;12762;51.730;5.356;2024-03-25T01:33:19;5.30;85.60
24618;DHT22;12762;51.730;5.356;2024-03-25T01:35:45;5.30;85.60
24618;DHT22;12762;51.730;5.356;2024-03-25T01:38:11;5.20;85.60
24618;DHT22;12762;51.730;5.356;2024-03-25T01:40:37;5.20;85.70
24618;DHT22;12762;51.730;5.356;2024-03-25T01:43:03;5.20;85.70
24618;DHT22;12762;51.730;5.356;2024-03-25T01:45:31;5.20;85.70
24618;DHT22;12762;51.730;5.356;2024-03-25T01:47:58;5.10;85.70
24618;DHT22;12762;51.730;5.356;2024-03-25T01:50:24;5.10;85.80
24618;DHT22;12762;51.730;5.356;2024-03-25T01:52:51;5.10;85.70
24618;DHT22;12762;51.730;5.356;2024-03-25T01:55:28;5.10;85.80
24618;DHT22;12762;51.730;5.356;2024-03-25T01:57:54;5.10;86.00
24618;DHT22;12762;51.730;5.356;2024-03-25T02:00:20;5.10;86.00
24618;DHT22;12762;51.730;5.356;2024-03-25T02:02:46;5.00;86.00
24618;DHT22;12762;51.730;5.356;2024-03-25T02:05:17;5.00;86.00
24618;DHT22;12762;51.730;5.356;2024-03-25T02:07:44;5.10;86.20
24618;DHT22;12762;51.730;5.356;2024-03-25T02:10:10;5.10;86.20
24618;DHT22;12762;51.730;5.356;2024-03-25T02:12:44;5.10;86.30
24618;DHT22;12762;51.730;5.356;2024-03-25T02:15:11;5.10;86.30
24618;DHT22;12762;51.730;5.356;2024-03-25T02:17:37;5.10;86.30
24618;DHT22;12762;51.730;5.356;2024-03-25T02:20:04;5.10;86.30
24618;DHT22;12762;51.730;5.356;2024-03-25T02:22:36;5.10;86.30
24618;DHT22;12762;51.730;5.356;2024-03-25T02:25:08;5.10;86.30
24618;DHT22;12762;51.730;5.356;2024-03-25T02:27:38;5.10;86.40
24618;DHT22;12762;51.730;5.356;2024-03-25T02:30:12;5.10;86.30
24618;DHT22;12762;51.730;5.356;2024-03-25T02:32:39;5.10;86.30
24618;DHT22;12762;51.730;5.356;2024-03-25T02:35:14;5.10;86.30
24618;DHT22;12762;51.730;5.356;2024-03-25T02:37:44;5.10;86.30
24618;DHT22;12762;51.730;5.356;2024-03-25T02:40:10;5.10;86.30
24618;DHT22;12762;51.730;5.356;2024-03-25T02:42:37;5.10;86.30
24618;DHT22;12762;51.730;5.356;2024-03-25T02:45:05;5.10;86.30
24618;DHT22;12762;51.730;5.356;2024-03-25T02:47:32;5.20;86.40
24618;DHT22;12762;51.730;5.356;2024-03-25T02:49:57;5.10;86.30
24618;DHT22;12762;51.730;5.356;2024-03-25T02:52:24;5.20;86.30
24618;DHT22;12762;51.730;5.356;2024-03-25T02:54:50;5.20;86.30
24618;DHT22;12762;51.730;5.356;2024-03-25T02:57:15;5.20;86.30
24618;DHT22;12762;51.730;5.356;2024-03-25T02:59:41;5.20;86.30
24618;DHT22;12762;51.730;5.356;2024-03-25T03:02:07;5.20;86.30
24618;DHT22;12762;51.730;5.356;2024-03-25T03:04:33;5.10;86.10
24618;DHT22;12762;51.730;5.356;2024-03-25T03:06:59;5.10;86.20
24618;DHT22;12762;51.730;5.356;2024-03-25T03:09:25;5.10;86.10
24618;DHT22;12762;51.730;5.356;2024-03-25T03:11:50;5.10;86.10
24618;DHT22;12762;51.730;5.356;2024-03-25T03:14:16;5.00;86.10
24618;DHT22;12762;51.730;5.356;2024-03-25T03:16:42;5.00;86.10
24618;DHT22;12762;51.730;5.356;2024-03-25T03:19:08;5.00;86.20
24618;DHT22;12762;51.730;5.356;2024-03-25T03:21:34;5.00;86.20
24618;DHT22;12762;51.730;5.356;2024-03-25T03:24:00;4.90;86.10
24618;DHT22;12762;51.730;5.356;2024-03-25T03:26:26;4.90;86.10
24618;DHT22;12762;51.730;5.356;2024-03-25T03:28:53;4.80;86.10
24618;DHT22;12762;51.730;5.356;2024-03-25T03:31:19;4.80;86.20
24618;DHT22;12762;51.730;5.356;2024-03-25T03:33:47;4.80;86.20
24618;DHT22;12762;51.730;5.356;2024-03-25T03:36:18;4.80;86.30
24618;DHT22;12762;51.730;5.356;2024-03-25T03:38:44;4.70;86.20
24618;DHT22;12762;51.730;5.356;2024-03-25T03:41:10;4.70;86.30
24618;DHT22;12762;51.730;5.356;2024-03-25T03:43:36;4.70;86.50
24618;DHT22;12762;51.730;5.356;2024-03-25T03:46:02;4.70;86.40
24618;DHT22;12762;51.730;5.356;2024-03-25T03:48:29;4.60;86.30
24618;DHT22;12762;51.730;5.356;2024-03-25T03:50:54;4.60;86.40
24618;DHT22;12762;51.730;5.356;2024-03-25T03:53:23;4.60;86.40
24618;DHT22;12762;51.730;5.356;2024-03-25T03:55:58;4.60;86.40
24618;DHT22;12762;51.730;5.356;2024-03-25T03:58:25;4.50;86.60
24618;DHT22;12762;51.730;5.356;2024-03-25T04:00:54;4.50;86.60
24618;DHT22;12762;51.730;5.356;2024-03-25T04:03:20;4.50;86.60
24618;DHT22;12762;51.730;5.356;2024-03-25T04:05:46;4.50;86.60
24618;DHT22;12762;51.730;5.356;2024-03-25T04:08:12;4.50;86.70
24618;DHT22;12762;51.730;5.356;2024-03-25T04:10:38;4.40;86.70
24618;DHT22;12762;51.730;5.356;2024-03-25T04:13:04;4.40;86.80
24618;DHT22;12762;51.730;5.356;2024-03-25T04:15:37;4.40;86.80
24618;DHT22;12762;51.730;5.356;2024-03-25T04:18:07;4.40;87.60
24618;DHT22;12762;51.730;5.356;2024-03-25T04:20:40;4.40;86.80
24618;DHT22;12762;51.730;5.356;2024-03-25T04:23:06;4.40;86.80
24618;DHT22;12762;51.730;5.356;2024-03-25T04:25:36;4.40;86.90
24618;DHT22;12762;51.730;5.356;2024-03-25T04:28:03;4.40;87.00
24618;DHT22;12762;51.730;5.356;2024-03-25T04:30:29;4.40;87.00
24618;DHT22;12762;51.730;5.356;2024-03-25T04:32:55;4.40;87.10
24618;DHT22;12762;51.730;5.356;2024-03-25T04:35:21;4.40;87.10
24618;DHT22;12762;51.730;5.356;2024-03-25T04:37:47;4.40;87.10
24618;DHT22;12762;51.730;5.356;2024-03-25T04:40:13;4.40;87.20
24618;DHT22;12762;51.730;5.356;2024-03-25T04:42:40;4.40;87.10
24618;DHT22;12762;51.730;5.356;2024-03-25T04:45:06;4.30;87.00
24618;DHT22;12762;51.730;5.356;2024-03-25T04:47:32;4.30;87.00
24618;DHT22;12762;51.730;5.356;2024-03-25T04:49:58;4.30;87.10
24618;DHT22;12762;51.730;5.356;2024-03-25T04:52:24;4.30;87.20
24618;DHT22;12762;51.730;5.356;2024-03-25T04:54:51;4.30;87.30
24618;DHT22;12762;51.730;5.356;2024-03-25T04:57:17;4.30;87.30
24618;DHT22;12762;51.730;5.356;2024-03-25T04:59:43;4.30;87.40
24618;DHT22;12762;51.730;5.356;2024-03-25T05:02:09;4.30;87.40
24618;DHT22;12762;51.730;5.356;2024-03-25T05:04:37;4.30;87.40
24618;DHT22;12762;51.730;5.356;2024-03-25T05:07:03;4.20;87.40
24618;DHT22;12762;51.730;5.356;2024-03-25T05:09:29;4.20;87.30
24618;DHT22;12762;51.730;5.356;2024-03-25T05:11:55;4.20;87.30
24618;DHT22;12762;51.730;5.356;2024-03-25T05:14:20;4.20;87.40
24618;DHT22;12762;51.730;5.356;2024-03-25T05:16:50;4.10;87.30
24618;DHT22;12762;51.730;5.356;2024-03-25T05:19:18;4.10;87.40
24618;DHT22;12762;51.730;5.356;2024-03-25T05:21:44;4.10;87.40
24618;DHT22;12762;51.730;5.356;2024-03-25T05:24:10;4.10;87.40
24618;DHT22;12762;51.730;5.356;2024-03-25T05:26:35;4.10;87.50
24618;DHT22;12762;51.730;5.356;2024-03-25T05:29:01;4.10;87.50
24618;DHT22;12762;51.730;5.356;2024-03-25T05:31:28;4.00;87.40
24618;DHT22;12762;51.730;5.356;2024-03-25T05:33:54;4.00;87.40
24618;DHT22;12762;51.730;5.356;2024-03-25T05:36:19;4.00;87.40
24618;DHT22;12762;51.730;5.356;2024-03-25T05:38:46;4.00;87.50
24618;DHT22;12762;51.730;5.356;2024-03-25T05:41:12;3.90;87.50
24618;DHT22;12762;51.730;5.356;2024-03-25T05:43:38;3.90;87.50
24618;DHT22;12762;51.730;5.356;2024-03-25T05:46:06;3.90;87.60
24618;DHT22;12762;51.730;5.356;2024-03-25T05:48:32;3.90;87.60
24618;DHT22;12762;51.730;5.356;2024-03-25T05:51:03;3.90;87.80
24618;DHT22;12762;51.730;5.356;2024-03-25T05:53:31;3.90;87.80
24618;DHT22;12762;51.730;5.356;2024-03-25T05:55:57;3.90;87.90
24618;DHT22;12762;51.730;5.356;2024-03-25T05:58:24;3.90;87.90
24618;DHT22;12762;51.730;5.356;2024-03-25T06:00:51;3.90;88.00
24618;DHT22;12762;51.730;5.356;2024-03-25T06:03:17;3.90;88.00
24618;DHT22;12762;51.730;5.356;2024-03-25T06:05:43;3.90;88.00
24618;DHT22;12762;51.730;5.356;2024-03-25T06:08:09;3.90;88.00
24618;DHT22;12762;51.730;5.356;2024-03-25T06:10:44;3.90;88.00
24618;DHT22;12762;51.730;5.356;2024-03-25T06:13:10;3.90;87.90
24618;DHT22;12762;51.730;5.356;2024-03-25T06:15:35;3.90;88.10
24618;DHT22;12762;51.730;5.356;2024-03-25T06:18:01;3.90;88.10
24618;DHT22;12762;51.730;5.356;2024-03-25T06:20:27;3.90;88.20
24618;DHT22;12762;51.730;5.356;2024-03-25T06:22:53;4.00;88.30
24618;DHT22;12762;51.730;5.356;2024-03-25T06:25:19;4.00;88.30
24618;DHT22;12762;51.730;5.356;2024-03-25T06:27:45;4.00;88.20
24618;DHT22;12762;51.730;5.356;2024-03-25T06:30:11;4.10;88.30
24618;DHT22;12762;51.730;5.356;2024-03-25T06:32:56;4.10;88.30
24618;DHT22;12762;51.730;5.356;2024-03-25T06:35:43;4.10;88.40
24618;DHT22;12762;51.730;5.356;2024-03-25T06:38:12;4.20;88.30
24618;DHT22;12762;51.730;5.356;2024-03-25T06:40:38;4.20;88.30
24618;DHT22;12762;51.730;5.356;2024-03-25T06:43:04;4.20;88.30
24618;DHT22;12762;51.730;5.356;2024-03-25T06:45:30;4.30;88.30
24618;DHT22;12762;51.730;5.356;2024-03-25T06:47:57;4.30;88.20
24618;DHT22;12762;51.730;5.356;2024-03-25T06:50:24;4.40;88.40
24618;DHT22;12762;51.730;5.356;2024-03-25T06:52:50;4.40;88.30
24618;DHT22;12762;51.730;5.356;2024-03-25T06:55:16;4.50;88.30
24618;DHT22;12762;51.730;5.356;2024-03-25T06:57:42;4.50;88.30
24618;DHT22;12762;51.730;5.356;2024-03-25T07:18:56;5.00;88.40
24618;DHT22;12762;51.730;5.356;2024-03-25T07:21:22;5.00;88.30
24618;DHT22;12762;51.730;5.356;2024-03-25T07:23:47;5.10;88.40
24618;DHT22;12762;51.730;5.356;2024-03-25T07:26:13;5.20;88.50
24618;DHT22;12762;51.730;5.356;2024-03-25T07:28:39;5.20;88.40
24618;DHT22;12762;51.730;5.356;2024-03-25T07:31:05;5.30;88.60
24618;DHT22;12762;51.730;5.356;2024-03-25T07:33:31;5.40;88.50
24618;DHT22;12762;51.730;5.356;2024-03-25T07:35:57;5.50;88.50
24618;DHT22;12762;51.730;5.356;2024-03-25T07:38:23;5.50;88.40
24618;DHT22;12762;51.730;5.356;2024-03-25T07:40:49;5.60;88.50
24618;DHT22;12762;51.730;5.356;2024-03-25T07:43:15;5.70;88.50
24618;DHT22;12762;51.730;5.356;2024-03-25T07:45:43;5.80;88.60
24618;DHT22;12762;51.730;5.356;2024-03-25T07:48:09;5.90;88.70
24618;DHT22;12762;51.730;5.356;2024-03-25T07:50:34;6.00;88.80
24618;DHT22;12762;51.730;5.356;2024-03-25T07:53:00;6.80;90.40
24618;DHT22;12762;51.730;5.356;2024-03-25T07:55:26;8.20;91.00
24618;DHT22;12762;51.730;5.356;2024-03-25T07:57:52;9.50;90.60
24618;DHT22;12762;51.730;5.356;2024-03-25T08:00:18;10.60;89.00
24618;DHT22;12762;51.730;5.356;2024-03-25T08:02:44;11.60;87.20
24618;DHT22;12762;51.730;5.356;2024-03-25T08:05:10;12.40;85.40
24618;DHT22;12762;51.730;5.356;2024-03-25T08:07:35;13.10;84.10
24618;DHT22;12762;51.730;5.356;2024-03-25T08:10:01;13.70;82.60
24618;DHT22;12762;51.730;5.356;2024-03-25T08:12:29;14.40;81.60
24618;DHT22;12762;51.730;5.356;2024-03-25T08:14:55;14.90;80.10
24618;DHT22;12762;51.730;5.356;2024-03-25T08:17:23;15.30;79.00
24618;DHT22;12762;51.730;5.356;2024-03-25T08:19:49;15.80;78.20
24618;DHT22;12762;51.730;5.356;2024-03-25T08:22:15;16.00;76.60
24618;DHT22;12762;51.730;5.356;2024-03-25T08:24:41;16.10;76.20
24618;DHT22;12762;51.730;5.356;2024-03-25T08:27:07;16.10;75.30
24618;DHT22;12762;51.730;5.356;2024-03-25T08:29:32;16.00;74.90
24618;DHT22;12762;51.730;5.356;2024-03-25T08:31:58;15.80;74.60
24618;DHT22;12762;51.730;5.356;2024-03-25T08:34:24;15.40;74.60
24618;DHT22;12762;51.730;5.356;2024-03-25T08:36:50;15.10;74.80
24618;DHT22;12762;51.730;5.356;2024-03-25T08:39:16;14.70;74.80
24618;DHT22;12762;51.730;5.356;2024-03-25T08:41:42;14.40;75.50
24618;DHT22;12762;51.730;5.356;2024-03-25T08:44:07;14.20;76.40
24618;DHT22;12762;51.730;5.356;2024-03-25T08:46:33;14.00;76.50
24618;DHT22;12762;51.730;5.356;2024-03-25T08:48:59;13.90;77.00
24618;DHT22;12762;51.730;5.356;2024-03-25T08:51:25;13.80;77.20
24618;DHT22;12762;51.730;5.356;2024-03-25T08:53:50;13.60;77.10
24618;DHT22;12762;51.730;5.356;2024-03-25T08:56:16;13.30;77.70
24618;DHT22;12762;51.730;5.356;2024-03-25T08:58:42;13.30;78.40
24618;DHT22;12762;51.730;5.356;2024-03-25T09:01:08;13.20;78.60
24618;DHT22;12762;51.730;5.356;2024-03-25T09:03:35;13.10;78.70
24618;DHT22;12762;51.730;5.356;2024-03-25T09:06:01;13.10;78.90
24618;DHT22;12762;51.730;5.356;2024-03-25T09:08:27;13.10;79.30
24618;DHT22;12762;51.730;5.356;2024-03-25T09:10:53;13.10;79.20
24618;DHT22;12762;51.730;5.356;2024-03-25T09:13:37;13.00;79.40
24618;DHT22;12762;51.730;5.356;2024-03-25T09:16:03;13.20;80.10
24618;DHT22;12762;51.730;5.356;2024-03-25T09:18:29;13.30;79.70
24618;DHT22;12762;51.730;5.356;2024-03-25T09:20:55;13.40;79.60
24618;DHT22;12762;51.730;5.356;2024-03-25T09:23:21;13.40;79.60
24618;DHT22;12762;51.730;5.356;2024-03-25T09:25:56;13.50;79.70
24618;DHT22;12762;51.730;5.356;2024-03-25T09:28:22;13.60;79.50
24618;DHT22;12762;51.730;5.356;2024-03-25T09:30:48;13.60;79.50
24618;DHT22;12762;51.730;5.356;2024-03-25T09:33:14;13.60;79.70
24618;DHT22;12762;51.730;5.356;2024-03-25T09:35:40;13.60;79.60
24618;DHT22;12762;51.730;5.356;2024-03-25T09:38:06;13.70;79.40
24618;DHT22;12762;51.730;5.356;2024-03-25T09:40:35;13.80;79.50
24618;DHT22;12762;51.730;5.356;2024-03-25T09:43:02;13.80;79.50
24618;DHT22;12762;51.730;5.356;2024-03-25T09:45:29;13.90;79.50
24618;DHT22;12762;51.730;5.356;2024-03-25T09:47:55;13.90;79.50
24618;DHT22;12762;51.730;5.356;2024-03-25T09:50:22;14.00;79.50
24618;DHT22;12762;51.730;5.356;2024-03-25T09:52:48;14.10;79.40
24618;DHT22;12762;51.730;5.356;2024-03-25T09:55:15;14.20;79.10
24618;DHT22;12762;51.730;5.356;2024-03-25T09:57:42;14.20;78.70
24618;DHT22;12762;51.730;5.356;2024-03-25T10:00:09;14.30;78.70
24618;DHT22;12762;51.730;5.356;2024-03-25T10:02:38;14.30;78.40
24618;DHT22;12762;51.730;5.356;2024-03-25T10:05:05;14.20;78.00
24618;DHT22;12762;51.730;5.356;2024-03-25T10:07:31;14.10;78.00
24618;DHT22;12762;51.730;5.356;2024-03-25T10:09:57;14.10;78.10
24618;DHT22;12762;51.730;5.356;2024-03-25T10:12:24;14.20;78.50
24618;DHT22;12762;51.730;5.356;2024-03-25T10:14:50;14.40;78.50
24618;DHT22;12762;51.730;5.356;2024-03-25T10:17:16;14.50;78.50
24618;DHT22;12762;51.730;5.356;2024-03-25T10:19:44;14.60;78.50
24618;DHT22;12762;51.730;5.356;2024-03-25T10:22:11;14.80;78.60
24618;DHT22;12762;51.730;5.356;2024-03-25T10:24:41;14.90;78.00
24618;DHT22;12762;51.730;5.356;2024-03-25T10:27:17;15.00;77.50
24618;DHT22;12762;51.730;5.356;2024-03-25T10:29:44;15.10;77.30
24618;DHT22;12762;51.730;5.356;2024-03-25T10:32:10;15.20;77.30
24618;DHT22;12762;51.730;5.356;2024-03-25T10:34:36;15.30;76.90
24618;DHT22;12762;51.730;5.356;2024-03-25T10:37:04;15.40;76.30
24618;DHT22;12762;51.730;5.356;2024-03-25T10:39:31;15.30;75.50
24618;DHT22;12762;51.730;5.356;2024-03-25T10:41:58;15.30;76.20
24618;DHT22;12762;51.730;5.356;2024-03-25T10:44:27;15.30;75.60
24618;DHT22;12762;51.730;5.356;2024-03-25T10:47:01;15.20;74.80
24618;DHT22;12762;51.730;5.356;2024-03-25T10:49:50;15.10;74.50
24618;DHT22;12762;51.730;5.356;2024-03-25T10:52:17;15.10;74.80
24618;DHT22;12762;51.730;5.356;2024-03-25T10:54:49;15.10;75.20
24618;DHT22;12762;51.730;5.356;2024-03-25T10:57:16;15.20;74.60
24618;DHT22;12762;51.730;5.356;2024-03-25T10:59:43;15.20;74.30
24618;DHT22;12762;51.730;5.356;2024-03-25T11:02:10;15.30;74.00
24618;DHT22;12762;51.730;5.356;2024-03-25T11:04:37;15.40;73.60
24618;DHT22;12762;51.730;5.356;2024-03-25T11:07:09;15.60;73.50
24618;DHT22;12762;51.730;5.356;2024-03-25T11:09:36;15.70;72.10
24618;DHT22;12762;51.730;5.356;2024-03-25T11:12:03;15.60;71.10
24618;DHT22;12762;51.730;5.356;2024-03-25T11:14:29;15.60;71.00
24618;DHT22;12762;51.730;5.356;2024-03-25T11:16:58;15.70;70.80
24618;DHT22;12762;51.730;5.356;2024-03-25T11:19:26;15.80;70.60
24618;DHT22;12762;51.730;5.356;2024-03-25T11:22:08;16.00;69.80
24618;DHT22;12762;51.730;5.356;2024-03-25T11:24:34;16.10;69.50
24618;DHT22;12762;51.730;5.356;2024-03-25T11:27:05;16.30;69.10
24618;DHT22;12762;51.730;5.356;2024-03-25T11:29:31;16.40;68.50
24618;DHT22;12762;51.730;5.356;2024-03-25T11:32:01;16.60;68.00
24618;DHT22;12762;51.730;5.356;2024-03-25T11:34:31;16.50;66.60
24618;DHT22;12762;51.730;5.356;2024-03-25T11:36:57;16.40;67.00
24618;DHT22;12762;51.730;5.356;2024-03-25T11:39:26;16.60;67.00
24618;DHT22;12762;51.730;5.356;2024-03-25T11:41:54;16.70;67.20
24618;DHT22;12762;51.730;5.356;2024-03-25T11:44:20;17.00;67.30
24618;DHT22;12762;51.730;5.356;2024-03-25T11:46:50;17.10;65.60
24618;DHT22;12762;51.730;5.356;2024-03-25T11:49:16;17.10;64.90
24618;DHT22;12762;51.730;5.356;2024-03-25T11:51:44;17.20;64.80
24618;DHT22;12762;51.730;5.356;2024-03-25T11:54:12;17.00;63.40
24618;DHT22;12762;51.730;5.356;2024-03-25T11:56:38;16.70;63.30
24618;DHT22;12762;51.730;5.356;2024-03-25T11:59:04;16.60;64.30
24618;DHT22;12762;51.730;5.356;2024-03-25T12:01:31;16.70;64.90
24618;DHT22;12762;51.730;5.356;2024-03-25T12:03:57;16.90;64.50
24618;DHT22;12762;51.730;5.356;2024-03-25T12:06:23;17.10;64.40
24618;DHT22;12762;51.730;5.356;2024-03-25T12:08:49;17.30;62.20
24618;DHT22;12762;51.730;5.356;2024-03-25T12:11:33;17.10;62.30
24618;DHT22;12762;51.730;5.356;2024-03-25T12:14:00;17.10;62.80
24618;DHT22;12762;51.730;5.356;2024-03-25T12:16:27;17.10;62.40
24618;DHT22;12762;51.730;5.356;2024-03-25T12:18:53;17.20;62.00
24618;DHT22;12762;51.730;5.356;2024-03-25T12:21:19;17.30;61.40
24618;DHT22;12762;51.730;5.356;2024-03-25T12:23:45;17.10;60.80
24618;DHT22;12762;51.730;5.356;2024-03-25T12:26:13;16.90;61.30
24618;DHT22;12762;51.730;5.356;2024-03-25T12:28:42;16.70;60.50
24618;DHT22;12762;51.730;5.356;2024-03-25T12:31:08;16.80;61.10
24618;DHT22;12762;51.730;5.356;2024-03-25T12:33:41;17.00;61.20
24618;DHT22;12762;51.730;5.356;2024-03-25T12:36:07;17.20;61.60
24618;DHT22;12762;51.730;5.356;2024-03-25T12:38:34;17.40;61.10
24618;DHT22;12762;51.730;5.356;2024-03-25T12:41:12;17.60;60.60
24618;DHT22;12762;51.730;5.356;2024-03-25T12:43:45;17.80;59.90
24618;DHT22;12762;51.730;5.356;2024-03-25T12:46:11;17.90;60.40
24618;DHT22;12762;51.730;5.356;2024-03-25T12:48:38;17.90;58.90
24618;DHT22;12762;51.730;5.356;2024-03-25T12:51:04;17.70;59.10
24618;DHT22;12762;51.730;5.356;2024-03-25T12:53:30;17.80;59.20
24618;DHT22;12762;51.730;5.356;2024-03-25T12:55:56;17.80;58.20
24618;DHT22;12762;51.730;5.356;2024-03-25T12:58:22;17.70;57.70
24618;DHT22;12762;51.730;5.356;2024-03-25T13:00:47;17.60;57.00
24618;DHT22;12762;51.730;5.356;2024-03-25T13:03:14;17.30;57.30
24618;DHT22;12762;51.730;5.356;2024-03-25T13:05:40;17.20;57.80
24618;DHT22;12762;51.730;5.356;2024-03-25T13:08:06;17.30;57.90
24618;DHT22;12762;51.730;5.356;2024-03-25T13:10:32;17.50;58.20
24618;DHT22;12762;51.730;5.356;2024-03-25T13:13:01;17.70;57.00
24618;DHT22;12762;51.730;5.356;2024-03-25T13:15:27;17.90;57.40
24618;DHT22;12762;51.730;5.356;2024-03-25T13:17:53;17.90;57.50
24618;DHT22;12762;51.730;5.356;2024-03-25T13:25:43;18.10;55.90
24618;DHT22;12762;51.730;5.356;2024-03-25T13:28:09;18.20;55.80
24618;DHT22;12762;51.730;5.356;2024-03-25T13:30:35;18.10;55.60
24618;DHT22;12762;51.730;5.356;2024-03-25T13:33:01;18.10;55.80
24618;DHT22;12762;51.730;5.356;2024-03-25T13:35:26;18.00;55.80
24618;DHT22;12762;51.730;5.356;2024-03-25T13:37:52;18.10;55.00
24618;DHT22;12762;51.730;5.356;2024-03-25T13:40:18;18.00;55.20
24618;DHT22;12762;51.730;5.356;2024-03-25T13:42:44;18.00;55.40
24618;DHT22;12762;51.730;5.356;2024-03-25T13:45:10;18.00;55.30
24618;DHT22;12762;51.730;5.356;2024-03-25T13:47:36;18.00;55.40
24618;DHT22;12762;51.730;5.356;2024-03-25T13:50:03;18.00;55.60
24618;DHT22;12762;51.730;5.356;2024-03-25T13:52:29;18.20;56.00
24618;DHT22;12762;51.730;5.356;2024-03-25T13:54:55;18.40;56.30
24618;DHT22;12762;51.730;5.356;2024-03-25T13:57:21;18.50;56.30
24618;DHT22;12762;51.730;5.356;2024-03-25T13:59:49;18.60;56.40
24618;DHT22;12762;51.730;5.356;2024-03-25T14:02:15;18.80;55.60
24618;DHT22;12762;51.730;5.356;2024-03-25T14:04:41;18.90;55.30
24618;DHT22;12762;51.730;5.356;2024-03-25T14:07:07;18.60;53.80
24618;DHT22;12762;51.730;5.356;2024-03-25T14:09:33;18.20;53.50
24618;DHT22;12762;51.730;5.356;2024-03-25T14:11:58;18.00;54.00
24618;DHT22;12762;51.730;5.356;2024-03-25T14:14:24;17.90;54.50
24618;DHT22;12762;51.730;5.356;2024-03-25T14:16:50;18.00;54.70
24618;DHT22;12762;51.730;5.356;2024-03-25T14:19:16;18.00;54.40
24618;DHT22;12762;51.730;5.356;2024-03-25T14:21:42;17.80;54.00
24618;DHT22;12762;51.730;5.356;2024-03-25T14:24:08;17.70;53.40
24618;DHT22;12762;51.730;5.356;2024-03-25T14:26:34;17.50;53.30
24618;DHT22;12762;51.730;5.356;2024-03-25T14:29:02;17.10;53.40
24618;DHT22;12762;51.730;5.356;2024-03-25T14:31:29;16.80;53.60
24618;DHT22;12762;51.730;5.356;2024-03-25T14:33:55;16.70;54.10
24618;DHT22;12762;51.730;5.356;2024-03-25T14:36:21;16.80;54.70
24618;DHT22;12762;51.730;5.356;2024-03-25T14:38:48;16.90;54.30
24618;DHT22;12762;51.730;5.356;2024-03-25T14:41:19;17.10;54.90
24618;DHT22;12762;51.730;5.356;2024-03-25T14:43:45;17.30;55.00
24618;DHT22;12762;51.730;5.356;2024-03-25T14:46:11;17.50;54.30
24618;DHT22;12762;51.730;5.356;2024-03-25T14:48:39;17.60;53.50
24618;DHT22;12762;51.730;5.356;2024-03-25T14:51:05;17.40;53.00
24618;DHT22;12762;51.730;5.356;2024-03-25T14:53:31;17.30;53.30
24618;DHT22;12762;51.730;5.356;2024-03-25T14:55:56;17.30;53.40
24618;DHT22;12762;51.730;5.356;2024-03-25T14:58:22;17.30;53.30
24618;DHT22;12762;51.730;5.356;2024-03-25T15:00:48;17.20;52.60
24618;DHT22;12762;51.730;5.356;2024-03-25T15:03:14;17.10;52.50
24618;DHT22;12762;51.730;5.356;2024-03-25T15:05:40;17.00;52.60
24618;DHT22;12762;51.730;5.356;2024-03-25T15:08:06;16.90;52.70
24618;DHT22;12762;51.730;5.356;2024-03-25T15:10:35;16.90;53.10
24618;DHT22;12762;51.730;5.356;2024-03-25T15:13:01;16.80;52.20
24618;DHT22;12762;51.730;5.356;2024-03-25T15:15:27;16.80;52.60
24618;DHT22;12762;51.730;5.356;2024-03-25T15:17:53;16.70;52.30
24618;DHT22;12762;51.730;5.356;2024-03-25T15:20:19;16.60;52.50
24618;DHT22;12762;51.730;5.356;2024-03-25T15:22:45;16.50;52.30
24618;DHT22;12762;51.730;5.356;2024-03-25T15:25:11;16.50;52.70
24618;DHT22;12762;51.730;5.356;2024-03-25T15:27:37;16.50;51.60
24618;DHT22;12762;51.730;5.356;2024-03-25T15:30:06;16.40;52.50
24618;DHT22;12762;51.730;5.356;2024-03-25T15:32:33;16.40;51.80
24618;DHT22;12762;51.730;5.356;2024-03-25T15:34:59;16.40;51.80
24618;DHT22;12762;51.730;5.356;2024-03-25T15:37:25;16.30;51.70
24618;DHT22;12762;51.730;5.356;2024-03-25T15:39:50;16.20;51.90
24618;DHT22;12762;51.730;5.356;2024-03-25T15:42:16;16.20;52.00
24618;DHT22;12762;51.730;5.356;2024-03-25T15:44:42;16.20;52.30
24618;DHT22;12762;51.730;5.356;2024-03-25T15:47:08;16.30;52.30
24618;DHT22;12762;51.730;5.356;2024-03-25T15:49:36;16.20;51.80
24618;DHT22;12762;51.730;5.356;2024-03-25T15:52:02;16.10;51.70
24618;DHT22;12762;51.730;5.356;2024-03-25T15:54:28;15.90;51.40
24618;DHT22;12762;51.730;5.356;2024-03-25T15:56:56;15.70;51.50
24618;DHT22;12762;51.730;5.356;2024-03-25T15:59:22;15.70;52.00